E.r. Basel — A8XQ4 — position and weather

sailwx.info

Track history (hours):
 
Tides and Currents Weather Stations Pressure Air Temp Water Temp Dewpoint Dewpoint Depression Visibility Wind Speed Wind Dir Waves Ship Positions

E.r. Basel

Last reported at 2016-Apr-22 22:33 UTC. Time now 2016-May-02 05:55 UTC.
Position N 01°54' E 102°22'.
Warning: this ship's position is 9 days out of date.

Length 187 m; draft 9.9 m.

Type: Cargo ship. MMSI: 636092149.

Date/timePositionNaut miles runAvg speedWind from/ knotsBaromVisibWave heightAir tempDewpointWater temp
2016-Apr-22 22:33N 01°54' E 102°22'1412.9
2016-Apr-22 21:28N 01°49' E 102°35'6513.2
2016-Apr-22 16:33N 01°13' E 103°29'1010.2
2016-Apr-22 15:33N 01°11' E 103°39'9 9.0
2016-Apr-22 14:33N 01°11' E 103°48'1111.2
2016-Apr-22 13:33N 01°15' E 103°58'3 3.1
2016-Apr-22 12:33N 01°17' E 104°01'0 0.0
2016-Apr-22 08:29N 01°17' E 104°01'0 0.0
2016-Apr-22 07:23N 01°17' E 104°01'0 0.1
2016-Apr-22 06:29N 01°17' E 104°01'0 0.0
2016-Apr-22 05:23N 01°17' E 104°01'0 0.1
2016-Apr-22 04:29N 01°17' E 104°01'0 0.0
2016-Apr-22 02:20N 01°17' E 104°01'1 0.7
2016-Apr-22 01:33N 01°17' E 104°00'1 1.2
2016-Apr-22 00:33N 01°16' E 104°01'  
2016-Apr-16 16:23N 22°36' E 120°11'6 1.0
2016-Apr-16 10:12N 22°36' E 120°18'0 0.0
2016-Apr-16 09:30N 22°36' E 120°18'0 0.0
2016-Apr-16 06:25N 22°36' E 120°18'0 0.0
2016-Apr-16 05:30N 22°36' E 120°18'0 0.0
2016-Apr-16 04:24N 22°36' E 120°18'0 0.0
2016-Apr-16 03:30N 22°36' E 120°18'0 0.0
2016-Apr-16 02:30N 22°36' E 120°18'0 0.0
2016-Apr-16 01:30N 22°36' E 120°18'0 0.0
2016-Apr-16 00:30N 22°36' E 120°18'0 0.0
2016-Apr-15 23:30N 22°36' E 120°18'0 0.0
2016-Apr-15 22:30N 22°36' E 120°18'0 0.0
2016-Apr-15 21:30N 22°36' E 120°18'0 0.0
2016-Apr-15 20:30N 22°36' E 120°18'0 0.0
2016-Apr-15 19:18N 22°36' E 120°18'0 0.0
2016-Apr-15 18:30N 22°36' E 120°18'0 0.0
2016-Apr-15 17:30N 22°36' E 120°18'0 0.0
2016-Apr-15 16:30N 22°36' E 120°18'0 0.0
2016-Apr-15 15:30N 22°36' E 120°18'0 0.0
2016-Apr-15 14:30N 22°36' E 120°18'0 0.0
2016-Apr-15 13:30N 22°36' E 120°18'0 0.0
2016-Apr-15 12:30N 22°36' E 120°18'0 0.0
2016-Apr-15 11:30N 22°36' E 120°18'0 0.0
2016-Apr-15 10:30N 22°36' E 120°18'0 0.1
2016-Apr-15 09:30N 22°36' E 120°18'0 0.1
2016-Apr-15 08:30N 22°36' E 120°18'0 0.0
2016-Apr-15 07:30N 22°36' E 120°18'0 0.0
2016-Apr-15 06:30N 22°36' E 120°18'0 0.0
2016-Apr-15 05:30N 22°36' E 120°18'0 0.0
2016-Apr-15 04:30N 22°36' E 120°18'0 0.0
2016-Apr-15 03:30N 22°36' E 120°18'0 0.0
2016-Apr-15 02:30N 22°36' E 120°18'0 0.0
2016-Apr-15 01:30N 22°36' E 120°18'0 0.0
2016-Apr-15 00:30N 22°36' E 120°18'0 0.0
2016-Apr-14 23:30N 22°36' E 120°18'0 0.0
2016-Apr-14 22:30N 22°36' E 120°18'0 0.0
2016-Apr-14 21:30N 22°36' E 120°18'0 0.0
2016-Apr-14 20:30N 22°36' E 120°18'0 0.0
2016-Apr-14 19:30N 22°36' E 120°18'0 0.0
2016-Apr-14 18:24N 22°36' E 120°18'0 0.0
2016-Apr-14 17:30N 22°36' E 120°18'0 0.0
2016-Apr-14 16:18N 22°36' E 120°18'0 0.0
2016-Apr-14 15:30N 22°36' E 120°18'0 0.0
2016-Apr-14 14:24N 22°36' E 120°18'0 0.0
2016-Apr-14 13:24N 22°36' E 120°18'0 0.0
2016-Apr-14 12:24N 22°36' E 120°18'0 0.0
2016-Apr-14 11:24N 22°36' E 120°18'0 0.0
2016-Apr-14 10:24N 22°36' E 120°18'0 0.0
2016-Apr-14 09:24N 22°36' E 120°18'0 0.0
2016-Apr-14 08:30N 22°36' E 120°18'0 0.0
2016-Apr-14 07:30N 22°36' E 120°18'0 0.0
2016-Apr-14 06:30N 22°36' E 120°18'0 0.0
2016-Apr-14 02:30N 22°36' E 120°18'0 0.0
2016-Apr-14 01:18N 22°36' E 120°18'0 0.0
2016-Apr-14 00:30N 22°36' E 120°18'0 0.0
2016-Apr-13 23:12N 22°36' E 120°18'0 0.0
2016-Apr-13 21:12N 22°36' E 120°18'0 0.0
2016-Apr-13 07:06N 22°36' E 120°18'0 0.0
2016-Apr-13 01:30N 22°36' E 120°18'  
Track history (hours):
 
Tides and Currents Weather Stations Pressure Air Temp Water Temp Dewpoint Dewpoint Depression Visibility Wind Speed Wind Dir Waves Ship Positions

E.r. Basel

Last reported at 2016-Apr-22 22:33 UTC. Time now 2016-May-02 05:55 UTC.
Position N 01°54' E 102°22'.
Warning: this ship's position is 9 days out of date.

Length 187 m; draft 9.9 m.

Type: Cargo ship. MMSI: 636092149.

Date/timePositionNaut miles runAvg speedWind from/ knotsBaromVisibWave heightAir tempDewpointWater temp
2016-Apr-22 22:33N 01°54' E 102°22'1412.9
2016-Apr-22 21:28N 01°49' E 102°35'6513.2
2016-Apr-22 16:33N 01°13' E 103°29'1010.2
2016-Apr-22 15:33N 01°11' E 103°39'9 9.0
2016-Apr-22 14:33N 01°11' E 103°48'1111.2
2016-Apr-22 13:33N 01°15' E 103°58'3 3.1
2016-Apr-22 12:33N 01°17' E 104°01'0 0.0
2016-Apr-22 08:29N 01°17' E 104°01'0 0.0
2016-Apr-22 07:23N 01°17' E 104°01'0 0.1
2016-Apr-22 06:29N 01°17' E 104°01'0 0.0
2016-Apr-22 05:23N 01°17' E 104°01'0 0.1
2016-Apr-22 04:29N 01°17' E 104°01'0 0.0
2016-Apr-22 02:20N 01°17' E 104°01'1 0.7
2016-Apr-22 01:33N 01°17' E 104°00'1 1.2
2016-Apr-22 00:33N 01°16' E 104°01'  
2016-Apr-16 16:23N 22°36' E 120°11'6 1.0
2016-Apr-16 10:12N 22°36' E 120°18'0 0.0
2016-Apr-16 09:30N 22°36' E 120°18'0 0.0
2016-Apr-16 06:25N 22°36' E 120°18'0 0.0
2016-Apr-16 05:30N 22°36' E 120°18'0 0.0
2016-Apr-16 04:24N 22°36' E 120°18'0 0.0
2016-Apr-16 03:30N 22°36' E 120°18'0 0.0
2016-Apr-16 02:30N 22°36' E 120°18'0 0.0
2016-Apr-16 01:30N 22°36' E 120°18'0 0.0
2016-Apr-16 00:30N 22°36' E 120°18'0 0.0
2016-Apr-15 23:30N 22°36' E 120°18'0 0.0
2016-Apr-15 22:30N 22°36' E 120°18'0 0.0
2016-Apr-15 21:30N 22°36' E 120°18'0 0.0
2016-Apr-15 20:30N 22°36' E 120°18'0 0.0
2016-Apr-15 19:18N 22°36' E 120°18'0 0.0
2016-Apr-15 18:30N 22°36' E 120°18'0 0.0
2016-Apr-15 17:30N 22°36' E 120°18'0 0.0
2016-Apr-15 16:30N 22°36' E 120°18'0 0.0
2016-Apr-15 15:30N 22°36' E 120°18'0 0.0
2016-Apr-15 14:30N 22°36' E 120°18'0 0.0
2016-Apr-15 13:30N 22°36' E 120°18'0 0.0
2016-Apr-15 12:30N 22°36' E 120°18'0 0.0
2016-Apr-15 11:30N 22°36' E 120°18'0 0.0
2016-Apr-15 10:30N 22°36' E 120°18'0 0.1
2016-Apr-15 09:30N 22°36' E 120°18'0 0.1
2016-Apr-15 08:30N 22°36' E 120°18'0 0.0
2016-Apr-15 07:30N 22°36' E 120°18'0 0.0
2016-Apr-15 06:30N 22°36' E 120°18'0 0.0
2016-Apr-15 05:30N 22°36' E 120°18'0 0.0
2016-Apr-15 04:30N 22°36' E 120°18'0 0.0
2016-Apr-15 03:30N 22°36' E 120°18'0 0.0
2016-Apr-15 02:30N 22°36' E 120°18'0 0.0
2016-Apr-15 01:30N 22°36' E 120°18'0 0.0
2016-Apr-15 00:30N 22°36' E 120°18'0 0.0
2016-Apr-14 23:30N 22°36' E 120°18'0 0.0
2016-Apr-14 22:30N 22°36' E 120°18'0 0.0
2016-Apr-14 21:30N 22°36' E 120°18'0 0.0
2016-Apr-14 20:30N 22°36' E 120°18'0 0.0
2016-Apr-14 19:30N 22°36' E 120°18'0 0.0
2016-Apr-14 18:24N 22°36' E 120°18'0 0.0
2016-Apr-14 17:30N 22°36' E 120°18'0 0.0
2016-Apr-14 16:18N 22°36' E 120°18'0 0.0
2016-Apr-14 15:30N 22°36' E 120°18'0 0.0
2016-Apr-14 14:24N 22°36' E 120°18'0 0.0
2016-Apr-14 13:24N 22°36' E 120°18'0 0.0
2016-Apr-14 12:24N 22°36' E 120°18'0 0.0
2016-Apr-14 11:24N 22°36' E 120°18'0 0.0
2016-Apr-14 10:24N 22°36' E 120°18'0 0.0
2016-Apr-14 09:24N 22°36' E 120°18'0 0.0
2016-Apr-14 08:30N 22°36' E 120°18'0 0.0
2016-Apr-14 07:30N 22°36' E 120°18'0 0.0
2016-Apr-14 06:30N 22°36' E 120°18'0 0.0
2016-Apr-14 02:30N 22°36' E 120°18'0 0.0
2016-Apr-14 01:18N 22°36' E 120°18'0 0.0
2016-Apr-14 00:30N 22°36' E 120°18'0 0.0
2016-Apr-13 23:12N 22°36' E 120°18'0 0.0
2016-Apr-13 21:12N 22°36' E 120°18'0 0.0
2016-Apr-13 07:06N 22°36' E 120°18'0 0.0
2016-Apr-13 01:30N 22°36' E 120°18'  

Dump ship's entire track history